sensor_id;sensor_type;location;lat;lon;timestamp;P1;durP1;ratioP1;P2;durP2;ratioP2
75419;SDS011;63998;52.488;13.428;2023-07-09T00:02:16;5.18;;;3.40;;
75419;SDS011;63998;52.488;13.428;2023-07-09T00:04:42;4.95;;;2.95;;
75419;SDS011;63998;52.488;13.428;2023-07-09T00:07:13;4.70;;;3.47;;
75419;SDS011;63998;52.488;13.428;2023-07-09T00:09:40;5.35;;;3.50;;
75419;SDS011;63998;52.488;13.428;2023-07-09T00:12:07;6.00;;;3.50;;
75419;SDS011;63998;52.488;13.428;2023-07-09T00:14:38;3.70;;;3.40;;
75419;SDS011;63998;52.488;13.428;2023-07-09T00:17:04;5.47;;;3.70;;
75419;SDS011;63998;52.488;13.428;2023-07-09T00:19:37;4.68;;;3.35;;
75419;SDS011;63998;52.488;13.428;2023-07-09T00:22:04;6.13;;;4.68;;
75419;SDS011;63998;52.488;13.428;2023-07-09T00:24:41;19.55;;;13.73;;
75419;SDS011;63998;52.488;13.428;2023-07-09T00:27:11;20.27;;;16.45;;
75419;SDS011;63998;52.488;13.428;2023-07-09T00:29:37;37.97;;;28.77;;
75419;SDS011;63998;52.488;13.428;2023-07-09T00:32:03;46.00;;;33.93;;
75419;SDS011;63998;52.488;13.428;2023-07-09T00:34:28;39.80;;;27.63;;
75419;SDS011;63998;52.488;13.428;2023-07-09T00:36:53;30.05;;;22.45;;
75419;SDS011;63998;52.488;13.428;2023-07-09T00:39:20;28.85;;;19.55;;
75419;SDS011;63998;52.488;13.428;2023-07-09T00:41:48;29.25;;;18.40;;
75419;SDS011;63998;52.488;13.428;2023-07-09T00:49:25;14.93;;;10.52;;
75419;SDS011;63998;52.488;13.428;2023-07-09T00:51:54;10.20;;;8.40;;
75419;SDS011;63998;52.488;13.428;2023-07-09T00:54:26;8.68;;;6.15;;
75419;SDS011;63998;52.488;13.428;2023-07-09T00:56:59;6.43;;;5.30;;
75419;SDS011;63998;52.488;13.428;2023-07-09T00:59:30;7.72;;;5.00;;
75419;SDS011;63998;52.488;13.428;2023-07-09T01:01:57;7.68;;;5.72;;
75419;SDS011;63998;52.488;13.428;2023-07-09T01:04:25;5.90;;;4.40;;
75419;SDS011;63998;52.488;13.428;2023-07-09T01:06:52;6.25;;;4.07;;
75419;SDS011;63998;52.488;13.428;2023-07-09T01:09:20;4.93;;;3.42;;
75419;SDS011;63998;52.488;13.428;2023-07-09T01:11:47;6.97;;;4.90;;
75419;SDS011;63998;52.488;13.428;2023-07-09T01:14:13;5.72;;;4.25;;
75419;SDS011;63998;52.488;13.428;2023-07-09T01:17:03;6.15;;;4.65;;
75419;SDS011;63998;52.488;13.428;2023-07-09T01:19:30;7.30;;;5.22;;
75419;SDS011;63998;52.488;13.428;2023-07-09T01:22:05;5.63;;;3.97;;
75419;SDS011;63998;52.488;13.428;2023-07-09T01:24:47;5.80;;;4.97;;
75419;SDS011;63998;52.488;13.428;2023-07-09T01:27:19;6.15;;;4.00;;
75419;SDS011;63998;52.488;13.428;2023-07-09T01:29:51;4.28;;;3.88;;
75419;SDS011;63998;52.488;13.428;2023-07-09T01:32:18;6.15;;;3.88;;
75419;SDS011;63998;52.488;13.428;2023-07-09T01:34:49;6.20;;;3.60;;
75419;SDS011;63998;52.488;13.428;2023-07-09T01:37:18;5.47;;;4.30;;
75419;SDS011;63998;52.488;13.428;2023-07-09T01:39:46;3.97;;;3.38;;
75419;SDS011;63998;52.488;13.428;2023-07-09T01:42:12;4.82;;;3.67;;
75419;SDS011;63998;52.488;13.428;2023-07-09T01:44:38;5.80;;;4.07;;
75419;SDS011;63998;52.488;13.428;2023-07-09T01:47:05;5.05;;;3.70;;
75419;SDS011;63998;52.488;13.428;2023-07-09T01:49:30;5.60;;;4.00;;
75419;SDS011;63998;52.488;13.428;2023-07-09T01:51:58;5.25;;;3.85;;
75419;SDS011;63998;52.488;13.428;2023-07-09T01:54:25;4.72;;;3.75;;
75419;SDS011;63998;52.488;13.428;2023-07-09T01:56:52;4.70;;;3.83;;
75419;SDS011;63998;52.488;13.428;2023-07-09T01:59:22;4.68;;;3.70;;
75419;SDS011;63998;52.488;13.428;2023-07-09T02:01:47;4.47;;;3.75;;
75419;SDS011;63998;52.488;13.428;2023-07-09T02:04:12;5.40;;;3.88;;
75419;SDS011;63998;52.488;13.428;2023-07-09T02:06:38;4.40;;;4.00;;
75419;SDS011;63998;52.488;13.428;2023-07-09T02:09:03;4.63;;;4.03;;
75419;SDS011;63998;52.488;13.428;2023-07-09T02:11:28;4.97;;;3.53;;
75419;SDS011;63998;52.488;13.428;2023-07-09T02:13:53;4.30;;;3.20;;
75419;SDS011;63998;52.488;13.428;2023-07-09T02:16:19;5.10;;;4.10;;
75419;SDS011;63998;52.488;13.428;2023-07-09T02:18:44;5.03;;;4.00;;
75419;SDS011;63998;52.488;13.428;2023-07-09T02:21:09;5.73;;;3.83;;
75419;SDS011;63998;52.488;13.428;2023-07-09T02:23:35;6.33;;;3.80;;
75419;SDS011;63998;52.488;13.428;2023-07-09T02:26:00;4.07;;;3.60;;
75419;SDS011;63998;52.488;13.428;2023-07-09T02:28:25;4.45;;;3.45;;
75419;SDS011;63998;52.488;13.428;2023-07-09T02:30:51;4.70;;;3.50;;
75419;SDS011;63998;52.488;13.428;2023-07-09T02:33:17;7.53;;;4.53;;
75419;SDS011;63998;52.488;13.428;2023-07-09T02:35:45;5.03;;;3.95;;
75419;SDS011;63998;52.488;13.428;2023-07-09T02:38:10;6.40;;;4.53;;
75419;SDS011;63998;52.488;13.428;2023-07-09T02:40:36;7.93;;;4.17;;
75419;SDS011;63998;52.488;13.428;2023-07-09T02:43:01;6.95;;;3.90;;
75419;SDS011;63998;52.488;13.428;2023-07-09T02:45:26;4.27;;;3.83;;
75419;SDS011;63998;52.488;13.428;2023-07-09T02:47:51;6.27;;;4.10;;
75419;SDS011;63998;52.488;13.428;2023-07-09T02:50:17;4.30;;;3.70;;
75419;SDS011;63998;52.488;13.428;2023-07-09T02:52:42;4.00;;;3.15;;
75419;SDS011;63998;52.488;13.428;2023-07-09T02:55:09;4.20;;;3.80;;
75419;SDS011;63998;52.488;13.428;2023-07-09T02:57:35;4.75;;;3.67;;
75419;SDS011;63998;52.488;13.428;2023-07-09T03:00:00;4.07;;;3.50;;
75419;SDS011;63998;52.488;13.428;2023-07-09T03:02:26;4.72;;;3.60;;
75419;SDS011;63998;52.488;13.428;2023-07-09T03:04:51;4.40;;;3.40;;
75419;SDS011;63998;52.488;13.428;2023-07-09T03:07:16;5.55;;;3.63;;
75419;SDS011;63998;52.488;13.428;2023-07-09T03:09:42;6.05;;;3.65;;
75419;SDS011;63998;52.488;13.428;2023-07-09T03:12:07;5.40;;;3.70;;
75419;SDS011;63998;52.488;13.428;2023-07-09T03:14:33;5.38;;;4.20;;
75419;SDS011;63998;52.488;13.428;2023-07-09T03:16:58;4.87;;;3.67;;
75419;SDS011;63998;52.488;13.428;2023-07-09T03:19:24;7.43;;;4.07;;
75419;SDS011;63998;52.488;13.428;2023-07-09T03:21:49;6.30;;;3.63;;
75419;SDS011;63998;52.488;13.428;2023-07-09T03:24:14;6.37;;;4.17;;
75419;SDS011;63998;52.488;13.428;2023-07-09T03:26:43;4.95;;;4.00;;
75419;SDS011;63998;52.488;13.428;2023-07-09T03:29:09;5.13;;;4.18;;
75419;SDS011;63998;52.488;13.428;2023-07-09T03:31:34;6.60;;;3.70;;
75419;SDS011;63998;52.488;13.428;2023-07-09T03:34:00;6.18;;;4.30;;
75419;SDS011;63998;52.488;13.428;2023-07-09T03:36:26;6.30;;;4.13;;
75419;SDS011;63998;52.488;13.428;2023-07-09T03:38:51;5.47;;;3.90;;
75419;SDS011;63998;52.488;13.428;2023-07-09T03:41:17;4.45;;;3.80;;
75419;SDS011;63998;52.488;13.428;2023-07-09T03:43:42;5.72;;;3.67;;
75419;SDS011;63998;52.488;13.428;2023-07-09T03:46:08;5.45;;;4.00;;
75419;SDS011;63998;52.488;13.428;2023-07-09T03:48:34;4.30;;;3.47;;
75419;SDS011;63998;52.488;13.428;2023-07-09T03:50:59;6.22;;;4.40;;
75419;SDS011;63998;52.488;13.428;2023-07-09T03:53:24;5.20;;;3.90;;
75419;SDS011;63998;52.488;13.428;2023-07-09T03:55:53;4.37;;;3.97;;
75419;SDS011;63998;52.488;13.428;2023-07-09T03:58:19;4.20;;;3.80;;
75419;SDS011;63998;52.488;13.428;2023-07-09T04:00:45;6.22;;;3.95;;
75419;SDS011;63998;52.488;13.428;2023-07-09T04:03:10;4.33;;;3.70;;
75419;SDS011;63998;52.488;13.428;2023-07-09T04:05:36;6.68;;;3.90;;
75419;SDS011;63998;52.488;13.428;2023-07-09T04:08:02;6.85;;;4.07;;
75419;SDS011;63998;52.488;13.428;2023-07-09T04:10:28;5.50;;;4.20;;
75419;SDS011;63998;52.488;13.428;2023-07-09T04:12:53;4.97;;;3.78;;
75419;SDS011;63998;52.488;13.428;2023-07-09T04:15:19;5.93;;;4.00;;
75419;SDS011;63998;52.488;13.428;2023-07-09T04:17:44;5.78;;;3.78;;
75419;SDS011;63998;52.488;13.428;2023-07-09T04:20:09;6.18;;;4.45;;
75419;SDS011;63998;52.488;13.428;2023-07-09T04:22:35;4.22;;;3.45;;
75419;SDS011;63998;52.488;13.428;2023-07-09T04:25:02;4.97;;;3.90;;
75419;SDS011;63998;52.488;13.428;2023-07-09T04:27:28;5.28;;;4.10;;
75419;SDS011;63998;52.488;13.428;2023-07-09T04:29:54;5.55;;;3.80;;
75419;SDS011;63998;52.488;13.428;2023-07-09T04:32:19;4.50;;;4.00;;
75419;SDS011;63998;52.488;13.428;2023-07-09T04:34:45;6.03;;;4.72;;
75419;SDS011;63998;52.488;13.428;2023-07-09T04:37:11;4.97;;;4.20;;
75419;SDS011;63998;52.488;13.428;2023-07-09T04:39:37;4.95;;;3.30;;
75419;SDS011;63998;52.488;13.428;2023-07-09T04:42:03;5.15;;;3.50;;
75419;SDS011;63998;52.488;13.428;2023-07-09T04:44:30;4.25;;;3.25;;
75419;SDS011;63998;52.488;13.428;2023-07-09T04:46:55;4.80;;;3.92;;
75419;SDS011;63998;52.488;13.428;2023-07-09T04:49:21;4.50;;;3.40;;
75419;SDS011;63998;52.488;13.428;2023-07-09T04:51:46;4.38;;;3.53;;
75419;SDS011;63998;52.488;13.428;2023-07-09T04:54:11;4.65;;;3.70;;
75419;SDS011;63998;52.488;13.428;2023-07-09T04:56:39;4.18;;;3.65;;
75419;SDS011;63998;52.488;13.428;2023-07-09T04:59:04;6.53;;;3.67;;
75419;SDS011;63998;52.488;13.428;2023-07-09T05:01:29;4.10;;;3.67;;
75419;SDS011;63998;52.488;13.428;2023-07-09T05:03:55;6.70;;;3.90;;
75419;SDS011;63998;52.488;13.428;2023-07-09T05:06:20;4.45;;;3.58;;
75419;SDS011;63998;52.488;13.428;2023-07-09T05:08:46;3.90;;;3.50;;
75419;SDS011;63998;52.488;13.428;2023-07-09T05:11:13;5.93;;;4.47;;
75419;SDS011;63998;52.488;13.428;2023-07-09T05:13:38;6.63;;;4.10;;
75419;SDS011;63998;52.488;13.428;2023-07-09T05:16:04;5.57;;;4.77;;
75419;SDS011;63998;52.488;13.428;2023-07-09T05:18:29;6.33;;;4.90;;
75419;SDS011;63998;52.488;13.428;2023-07-09T05:20:54;4.30;;;3.70;;
75419;SDS011;63998;52.488;13.428;2023-07-09T05:23:20;4.72;;;3.20;;
75419;SDS011;63998;52.488;13.428;2023-07-09T05:25:46;4.13;;;3.25;;
75419;SDS011;63998;52.488;13.428;2023-07-09T05:28:12;3.80;;;3.25;;
75419;SDS011;63998;52.488;13.428;2023-07-09T05:30:37;5.00;;;3.17;;
75419;SDS011;63998;52.488;13.428;2023-07-09T05:33:06;4.63;;;3.60;;
75419;SDS011;63998;52.488;13.428;2023-07-09T05:35:31;5.00;;;3.50;;
75419;SDS011;63998;52.488;13.428;2023-07-09T05:37:57;4.53;;;2.87;;
75419;SDS011;63998;52.488;13.428;2023-07-09T05:40:22;4.17;;;3.10;;
75419;SDS011;63998;52.488;13.428;2023-07-09T05:42:48;3.70;;;2.93;;
75419;SDS011;63998;52.488;13.428;2023-07-09T05:45:14;4.55;;;3.83;;
75419;SDS011;63998;52.488;13.428;2023-07-09T05:47:40;3.97;;;3.25;;
75419;SDS011;63998;52.488;13.428;2023-07-09T05:50:06;3.50;;;3.20;;
75419;SDS011;63998;52.488;13.428;2023-07-09T05:52:32;4.30;;;3.80;;
75419;SDS011;63998;52.488;13.428;2023-07-09T05:54:57;4.57;;;3.53;;
75419;SDS011;63998;52.488;13.428;2023-07-09T05:57:24;6.68;;;4.13;;
75419;SDS011;63998;52.488;13.428;2023-07-09T05:59:49;5.38;;;3.97;;
75419;SDS011;63998;52.488;13.428;2023-07-09T06:02:15;4.20;;;3.80;;
75419;SDS011;63998;52.488;13.428;2023-07-09T06:04:42;6.60;;;5.50;;
75419;SDS011;63998;52.488;13.428;2023-07-09T06:07:07;6.20;;;3.80;;
75419;SDS011;63998;52.488;13.428;2023-07-09T06:09:34;6.78;;;4.40;;
75419;SDS011;63998;52.488;13.428;2023-07-09T06:12:01;5.95;;;4.03;;
75419;SDS011;63998;52.488;13.428;2023-07-09T06:14:27;6.70;;;5.35;;
75419;SDS011;63998;52.488;13.428;2023-07-09T06:16:52;4.25;;;3.70;;
75419;SDS011;63998;52.488;13.428;2023-07-09T06:19:18;4.33;;;3.80;;
75419;SDS011;63998;52.488;13.428;2023-07-09T06:21:43;5.83;;;3.90;;
75419;SDS011;63998;52.488;13.428;2023-07-09T06:24:08;5.00;;;3.77;;
75419;SDS011;63998;52.488;13.428;2023-07-09T06:26:34;5.55;;;3.45;;
75419;SDS011;63998;52.488;13.428;2023-07-09T06:29:00;3.78;;;3.40;;
75419;SDS011;63998;52.488;13.428;2023-07-09T06:31:26;4.43;;;3.85;;
75419;SDS011;63998;52.488;13.428;2023-07-09T06:33:51;3.85;;;3.38;;
75419;SDS011;63998;52.488;13.428;2023-07-09T06:36:17;6.20;;;4.55;;
75419;SDS011;63998;52.488;13.428;2023-07-09T06:38:43;4.65;;;4.15;;
75419;SDS011;63998;52.488;13.428;2023-07-09T06:41:09;4.43;;;4.03;;
75419;SDS011;63998;52.488;13.428;2023-07-09T06:43:35;4.95;;;3.60;;
75419;SDS011;63998;52.488;13.428;2023-07-09T06:46:04;5.45;;;3.35;;
75419;SDS011;63998;52.488;13.428;2023-07-09T06:48:30;6.55;;;3.90;;
75419;SDS011;63998;52.488;13.428;2023-07-09T06:50:56;4.22;;;3.63;;
75419;SDS011;63998;52.488;13.428;2023-07-09T06:53:22;7.20;;;5.03;;
75419;SDS011;63998;52.488;13.428;2023-07-09T06:55:48;5.88;;;4.18;;
75419;SDS011;63998;52.488;13.428;2023-07-09T06:58:15;5.15;;;3.80;;
75419;SDS011;63998;52.488;13.428;2023-07-09T07:00:41;4.53;;;3.55;;
75419;SDS011;63998;52.488;13.428;2023-07-09T07:03:06;4.53;;;3.90;;
75419;SDS011;63998;52.488;13.428;2023-07-09T07:05:33;5.95;;;4.10;;
75419;SDS011;63998;52.488;13.428;2023-07-09T07:07:59;7.35;;;5.10;;
75419;SDS011;63998;52.488;13.428;2023-07-09T07:10:25;5.30;;;4.80;;
75419;SDS011;63998;52.488;13.428;2023-07-09T07:12:51;4.97;;;4.20;;
75419;SDS011;63998;52.488;13.428;2023-07-09T07:15:17;6.82;;;4.30;;
75419;SDS011;63998;52.488;13.428;2023-07-09T07:17:43;4.78;;;3.75;;
75419;SDS011;63998;52.488;13.428;2023-07-09T07:20:09;4.53;;;4.10;;
75419;SDS011;63998;52.488;13.428;2023-07-09T07:22:37;5.70;;;4.32;;
75419;SDS011;63998;52.488;13.428;2023-07-09T07:25:03;5.40;;;4.53;;
75419;SDS011;63998;52.488;13.428;2023-07-09T07:27:32;4.28;;;3.50;;
75419;SDS011;63998;52.488;13.428;2023-07-09T07:29:58;4.18;;;3.58;;
75419;SDS011;63998;52.488;13.428;2023-07-09T07:32:23;5.93;;;4.07;;
75419;SDS011;63998;52.488;13.428;2023-07-09T07:34:49;4.35;;;3.65;;
75419;SDS011;63998;52.488;13.428;2023-07-09T07:37:15;4.30;;;3.55;;
75419;SDS011;63998;52.488;13.428;2023-07-09T07:39:44;5.60;;;3.67;;
75419;SDS011;63998;52.488;13.428;2023-07-09T07:42:09;4.40;;;3.67;;
75419;SDS011;63998;52.488;13.428;2023-07-09T07:44:35;5.35;;;4.38;;
75419;SDS011;63998;52.488;13.428;2023-07-09T07:47:01;5.10;;;4.47;;
75419;SDS011;63998;52.488;13.428;2023-07-09T07:49:26;6.88;;;4.38;;
75419;SDS011;63998;52.488;13.428;2023-07-09T07:51:52;6.45;;;4.25;;
75419;SDS011;63998;52.488;13.428;2023-07-09T07:54:17;5.85;;;3.83;;
75419;SDS011;63998;52.488;13.428;2023-07-09T07:56:43;5.05;;;4.55;;
75419;SDS011;63998;52.488;13.428;2023-07-09T07:59:08;6.55;;;3.97;;
75419;SDS011;63998;52.488;13.428;2023-07-09T08:01:34;4.90;;;4.10;;
75419;SDS011;63998;52.488;13.428;2023-07-09T08:04:01;6.32;;;4.13;;
75419;SDS011;63998;52.488;13.428;2023-07-09T08:06:27;6.60;;;4.68;;
75419;SDS011;63998;52.488;13.428;2023-07-09T08:08:53;4.32;;;3.88;;
75419;SDS011;63998;52.488;13.428;2023-07-09T08:11:18;4.35;;;3.90;;
75419;SDS011;63998;52.488;13.428;2023-07-09T08:13:43;4.45;;;4.05;;
75419;SDS011;63998;52.488;13.428;2023-07-09T08:16:09;4.72;;;4.30;;
75419;SDS011;63998;52.488;13.428;2023-07-09T08:18:36;4.82;;;4.10;;
75419;SDS011;63998;52.488;13.428;2023-07-09T08:21:02;6.60;;;4.25;;
75419;SDS011;63998;52.488;13.428;2023-07-09T08:23:28;5.00;;;4.40;;
75419;SDS011;63998;52.488;13.428;2023-07-09T08:25:57;5.70;;;4.03;;
75419;SDS011;63998;52.488;13.428;2023-07-09T08:28:25;5.57;;;4.25;;
75419;SDS011;63998;52.488;13.428;2023-07-09T08:30:51;5.97;;;4.40;;
75419;SDS011;63998;52.488;13.428;2023-07-09T08:33:17;4.60;;;4.13;;
75419;SDS011;63998;52.488;13.428;2023-07-09T08:35:43;4.60;;;3.97;;
75419;SDS011;63998;52.488;13.428;2023-07-09T08:38:08;6.35;;;4.38;;
75419;SDS011;63998;52.488;13.428;2023-07-09T08:40:35;7.20;;;5.22;;
75419;SDS011;63998;52.488;13.428;2023-07-09T08:43:17;12.73;;;9.20;;
75419;SDS011;63998;52.488;13.428;2023-07-09T08:46:07;5.88;;;5.28;;
75419;SDS011;63998;52.488;13.428;2023-07-09T08:48:41;9.88;;;7.55;;
75419;SDS011;63998;52.488;13.428;2023-07-09T08:53:53;7.10;;;6.10;;
75419;SDS011;63998;52.488;13.428;2023-07-09T08:56:22;8.38;;;7.38;;
75419;SDS011;63998;52.488;13.428;2023-07-09T08:58:49;5.63;;;4.30;;
75419;SDS011;63998;52.488;13.428;2023-07-09T09:01:20;8.55;;;5.22;;
75419;SDS011;63998;52.488;13.428;2023-07-09T09:03:50;9.52;;;5.88;;
75419;SDS011;63998;52.488;13.428;2023-07-09T09:06:19;7.65;;;4.57;;
75419;SDS011;63998;52.488;13.428;2023-07-09T09:14:15;10.05;;;8.65;;
75419;SDS011;63998;52.488;13.428;2023-07-09T09:16:48;5.75;;;5.20;;
75419;SDS011;63998;52.488;13.428;2023-07-09T09:21:57;5.93;;;5.10;;
75419;SDS011;63998;52.488;13.428;2023-07-09T09:27:21;6.47;;;5.50;;
75419;SDS011;63998;52.488;13.428;2023-07-09T09:29:47;6.27;;;4.83;;
75419;SDS011;63998;52.488;13.428;2023-07-09T09:32:22;5.57;;;4.97;;
75419;SDS011;63998;52.488;13.428;2023-07-09T09:34:51;6.03;;;5.43;;
75419;SDS011;63998;52.488;13.428;2023-07-09T09:37:28;4.40;;;4.00;;
75419;SDS011;63998;52.488;13.428;2023-07-09T09:39:55;4.43;;;3.97;;
75419;SDS011;63998;52.488;13.428;2023-07-09T09:42:23;4.30;;;3.50;;
75419;SDS011;63998;52.488;13.428;2023-07-09T09:44:49;4.13;;;3.72;;
75419;SDS011;63998;52.488;13.428;2023-07-09T09:47:15;3.42;;;3.15;;
75419;SDS011;63998;52.488;13.428;2023-07-09T09:49:41;4.32;;;3.67;;
75419;SDS011;63998;52.488;13.428;2023-07-09T09:52:14;4.22;;;3.42;;
75419;SDS011;63998;52.488;13.428;2023-07-09T09:54:54;4.13;;;3.72;;
75419;SDS011;63998;52.488;13.428;2023-07-09T09:57:22;4.50;;;3.17;;
75419;SDS011;63998;52.488;13.428;2023-07-09T09:59:49;4.03;;;3.60;;
75419;SDS011;63998;52.488;13.428;2023-07-09T10:02:22;4.18;;;3.78;;
75419;SDS011;63998;52.488;13.428;2023-07-09T10:04:50;4.80;;;3.75;;
75419;SDS011;63998;52.488;13.428;2023-07-09T10:07:35;4.45;;;3.63;;
75419;SDS011;63998;52.488;13.428;2023-07-09T10:10:04;4.18;;;3.78;;
75419;SDS011;63998;52.488;13.428;2023-07-09T10:12:47;5.22;;;4.15;;
75419;SDS011;63998;52.488;13.428;2023-07-09T10:15:25;4.90;;;3.90;;
75419;SDS011;63998;52.488;13.428;2023-07-09T10:18:00;6.03;;;4.40;;
75419;SDS011;63998;52.488;13.428;2023-07-09T10:20:37;4.75;;;4.35;;
75419;SDS011;63998;52.488;13.428;2023-07-09T10:23:27;5.63;;;4.40;;
75419;SDS011;63998;52.488;13.428;2023-07-09T10:26:01;4.80;;;3.90;;
75419;SDS011;63998;52.488;13.428;2023-07-09T10:31:49;4.53;;;4.13;;
75419;SDS011;63998;52.488;13.428;2023-07-09T10:43:12;5.15;;;4.65;;
75419;SDS011;63998;52.488;13.428;2023-07-09T10:45:52;4.35;;;3.95;;
75419;SDS011;63998;52.488;13.428;2023-07-09T10:51:02;5.03;;;3.85;;
75419;SDS011;63998;52.488;13.428;2023-07-09T10:53:31;5.45;;;4.22;;
75419;SDS011;63998;52.488;13.428;2023-07-09T10:56:17;5.40;;;4.53;;
75419;SDS011;63998;52.488;13.428;2023-07-09T11:01:35;5.63;;;4.80;;
75419;SDS011;63998;52.488;13.428;2023-07-09T11:04:39;5.93;;;4.13;;
75419;SDS011;63998;52.488;13.428;2023-07-09T11:07:01;12.98;;;10.65;;
75419;SDS011;63998;52.488;13.428;2023-07-09T11:09:35;13.55;;;9.60;;
75419;SDS011;63998;52.488;13.428;2023-07-09T11:12:06;6.78;;;5.97;;
75419;SDS011;63998;52.488;13.428;2023-07-09T11:14:41;7.85;;;5.90;;
75419;SDS011;63998;52.488;13.428;2023-07-09T11:17:17;5.22;;;4.68;;
75419;SDS011;63998;52.488;13.428;2023-07-09T11:19:45;5.18;;;4.50;;
75419;SDS011;63998;52.488;13.428;2023-07-09T11:23:01;5.28;;;4.65;;
75419;SDS011;63998;52.488;13.428;2023-07-09T11:25:07;5.93;;;5.10;;
75419;SDS011;63998;52.488;13.428;2023-07-09T11:27:33;6.82;;;4.72;;
75419;SDS011;63998;52.488;13.428;2023-07-09T11:30:15;4.97;;;4.20;;
75419;SDS011;63998;52.488;13.428;2023-07-09T11:32:46;6.32;;;4.90;;
75419;SDS011;63998;52.488;13.428;2023-07-09T11:35:22;5.68;;;4.50;;
75419;SDS011;63998;52.488;13.428;2023-07-09T11:37:49;10.02;;;5.47;;
75419;SDS011;63998;52.488;13.428;2023-07-09T11:40:17;7.25;;;4.70;;
75419;SDS011;63998;52.488;13.428;2023-07-09T11:42:47;4.45;;;4.05;;
75419;SDS011;63998;52.488;13.428;2023-07-09T11:45:13;10.40;;;7.55;;
75419;SDS011;63998;52.488;13.428;2023-07-09T11:55:45;7.75;;;6.40;;
75419;SDS011;63998;52.488;13.428;2023-07-09T11:58:13;7.60;;;6.85;;
75419;SDS011;63998;52.488;13.428;2023-07-09T12:00:40;7.03;;;6.43;;
75419;SDS011;63998;52.488;13.428;2023-07-09T12:03:18;8.57;;;6.82;;
75419;SDS011;63998;52.488;13.428;2023-07-09T12:05:50;8.10;;;7.35;;
75419;SDS011;63998;52.488;13.428;2023-07-09T12:08:17;7.75;;;6.95;;
75419;SDS011;63998;52.488;13.428;2023-07-09T12:10:55;7.35;;;6.75;;
75419;SDS011;63998;52.488;13.428;2023-07-09T12:13:21;8.30;;;7.50;;
75419;SDS011;63998;52.488;13.428;2023-07-09T12:15:46;8.50;;;7.60;;
75419;SDS011;63998;52.488;13.428;2023-07-09T12:18:13;7.32;;;6.60;;
75419;SDS011;63998;52.488;13.428;2023-07-09T12:20:40;7.43;;;6.72;;
75419;SDS011;63998;52.488;13.428;2023-07-09T12:26:00;7.00;;;6.30;;
75419;SDS011;63998;52.488;13.428;2023-07-09T12:28:27;8.13;;;7.40;;
75419;SDS011;63998;52.488;13.428;2023-07-09T12:30:53;6.47;;;5.88;;
75419;SDS011;63998;52.488;13.428;2023-07-09T12:33:20;6.82;;;6.13;;
75419;SDS011;63998;52.488;13.428;2023-07-09T12:35:56;6.88;;;6.07;;
75419;SDS011;63998;52.488;13.428;2023-07-09T12:38:23;6.28;;;5.68;;
75419;SDS011;63998;52.488;13.428;2023-07-09T12:40:51;7.90;;;7.20;;
75419;SDS011;63998;52.488;13.428;2023-07-09T12:43:19;6.60;;;5.97;;
75419;SDS011;63998;52.488;13.428;2023-07-09T12:45:52;6.25;;;5.65;;
75419;SDS011;63998;52.488;13.428;2023-07-09T12:48:22;6.40;;;5.80;;
75419;SDS011;63998;52.488;13.428;2023-07-09T12:50:51;6.55;;;5.30;;
75419;SDS011;63998;52.488;13.428;2023-07-09T12:53:20;5.82;;;5.22;;
75419;SDS011;63998;52.488;13.428;2023-07-09T12:55:46;5.70;;;5.20;;
75419;SDS011;63998;52.488;13.428;2023-07-09T12:58:19;5.93;;;5.10;;
75419;SDS011;63998;52.488;13.428;2023-07-09T13:00:49;5.20;;;4.80;;
75419;SDS011;63998;52.488;13.428;2023-07-09T13:03:17;5.40;;;4.90;;
75419;SDS011;63998;52.488;13.428;2023-07-09T13:05:53;6.40;;;4.60;;
75419;SDS011;63998;52.488;13.428;2023-07-09T13:08:19;6.70;;;6.03;;
75419;SDS011;63998;52.488;13.428;2023-07-09T13:10:45;5.88;;;5.30;;
75419;SDS011;63998;52.488;13.428;2023-07-09T13:13:11;9.98;;;8.65;;
75419;SDS011;63998;52.488;13.428;2023-07-09T13:18:10;6.18;;;5.57;;
75419;SDS011;63998;52.488;13.428;2023-07-09T13:20:37;7.35;;;5.43;;
75419;SDS011;63998;52.488;13.428;2023-07-09T13:23:12;6.20;;;5.13;;
75419;SDS011;63998;52.488;13.428;2023-07-09T13:25:40;5.13;;;4.63;;
75419;SDS011;63998;52.488;13.428;2023-07-09T13:28:16;11.45;;;9.73;;
75419;SDS011;63998;52.488;13.428;2023-07-09T13:30:44;11.57;;;10.38;;
75419;SDS011;63998;52.488;13.428;2023-07-09T13:33:10;6.00;;;5.40;;
75419;SDS011;63998;52.488;13.428;2023-07-09T13:35:36;6.28;;;5.68;;
75419;SDS011;63998;52.488;13.428;2023-07-09T13:38:02;8.50;;;6.38;;
75419;SDS011;63998;52.488;13.428;2023-07-09T13:40:31;42.53;;;33.15;;
75419;SDS011;63998;52.488;13.428;2023-07-09T13:42:56;18.53;;;15.53;;
75419;SDS011;63998;52.488;13.428;2023-07-09T13:45:22;7.40;;;5.73;;
75419;SDS011;63998;52.488;13.428;2023-07-09T13:47:50;8.98;;;7.65;;
75419;SDS011;63998;52.488;13.428;2023-07-09T13:50:17;10.93;;;8.38;;
75419;SDS011;63998;52.488;13.428;2023-07-09T13:55:19;6.25;;;4.97;;
75419;SDS011;63998;52.488;13.428;2023-07-09T13:57:47;4.80;;;4.40;;
75419;SDS011;63998;52.488;13.428;2023-07-09T14:00:13;6.03;;;5.10;;
75419;SDS011;63998;52.488;13.428;2023-07-09T14:02:39;6.13;;;5.53;;
75419;SDS011;63998;52.488;13.428;2023-07-09T14:05:06;10.00;;;9.00;;
75419;SDS011;63998;52.488;13.428;2023-07-09T14:07:37;5.20;;;4.47;;
75419;SDS011;63998;52.488;13.428;2023-07-09T14:10:05;5.82;;;4.85;;
75419;SDS011;63998;52.488;13.428;2023-07-09T14:12:34;5.80;;;4.80;;
75419;SDS011;63998;52.488;13.428;2023-07-09T14:15:05;5.47;;;4.80;;
75419;SDS011;63998;52.488;13.428;2023-07-09T14:17:37;6.32;;;4.70;;
75419;SDS011;63998;52.488;13.428;2023-07-09T14:20:03;5.78;;;5.28;;
75419;SDS011;63998;52.488;13.428;2023-07-09T14:22:33;6.38;;;4.80;;
75419;SDS011;63998;52.488;13.428;2023-07-09T14:25:00;5.82;;;4.90;;
75419;SDS011;63998;52.488;13.428;2023-07-09T14:27:27;5.15;;;4.47;;
75419;SDS011;63998;52.488;13.428;2023-07-09T14:29:53;5.55;;;4.38;;
75419;SDS011;63998;52.488;13.428;2023-07-09T14:35:03;5.65;;;4.60;;
75419;SDS011;63998;52.488;13.428;2023-07-09T14:37:37;5.50;;;5.00;;
75419;SDS011;63998;52.488;13.428;2023-07-09T14:40:03;6.50;;;4.60;;
75419;SDS011;63998;52.488;13.428;2023-07-09T14:44:55;4.70;;;4.30;;
75419;SDS011;63998;52.488;13.428;2023-07-09T14:47:20;5.90;;;4.63;;
75419;SDS011;63998;52.488;13.428;2023-07-09T14:49:46;5.35;;;4.88;;
75419;SDS011;63998;52.488;13.428;2023-07-09T14:52:16;5.05;;;4.63;;
75419;SDS011;63998;52.488;13.428;2023-07-09T14:54:45;5.28;;;4.78;;
75419;SDS011;63998;52.488;13.428;2023-07-09T14:57:17;6.78;;;5.30;;
75419;SDS011;63998;52.488;13.428;2023-07-09T14:59:44;7.82;;;7.13;;
75419;SDS011;63998;52.488;13.428;2023-07-09T15:02:21;11.00;;;9.80;;
75419;SDS011;63998;52.488;13.428;2023-07-09T15:04:58;7.03;;;6.43;;
75419;SDS011;63998;52.488;13.428;2023-07-09T15:07:23;35.53;;;26.33;;
75419;SDS011;63998;52.488;13.428;2023-07-09T15:10:00;19.00;;;15.30;;
75419;SDS011;63998;52.488;13.428;2023-07-09T15:12:30;10.25;;;9.25;;
75419;SDS011;63998;52.488;13.428;2023-07-09T15:15:03;8.32;;;7.53;;
75419;SDS011;63998;52.488;13.428;2023-07-09T15:17:38;8.15;;;6.32;;
75419;SDS011;63998;52.488;13.428;2023-07-09T15:20:04;6.00;;;5.50;;
75419;SDS011;63998;52.488;13.428;2023-07-09T15:22:33;22.00;;;15.82;;
75419;SDS011;63998;52.488;13.428;2023-07-09T15:25:01;9.18;;;7.00;;
75419;SDS011;63998;52.488;13.428;2023-07-09T15:27:27;9.45;;;8.65;;
75419;SDS011;63998;52.488;13.428;2023-07-09T15:29:52;7.97;;;7.03;;
75419;SDS011;63998;52.488;13.428;2023-07-09T15:32:18;9.18;;;8.27;;
75419;SDS011;63998;52.488;13.428;2023-07-09T15:34:44;11.35;;;9.88;;
75419;SDS011;63998;52.488;13.428;2023-07-09T15:37:13;7.30;;;5.78;;